Pagrindinis puslapis
METAR-TAF:

METAR-TAF

Oro uostai :

Fukuokas, Vietnamas

platuma: 10-10-18N, ilguma: 103-59-28E, Aukštis: 11 m

Dabartinis oras

Ataskaita buvo paskelbta 16 minutes, ne 09:00 UTC
Vėjas 9 kt iš Rytų, svyruoja nuo Rytų/Šiaurės Rytų ir Pietryčių
Temperatūra 28°C
Drėgmė 62%
Slėgis 1009 hPa
Matomumas 10 km arba daugiau
nėra debesų žemiau 1500 m ir nėra kamuolinių lietaus debesų

METAR: VVPQ 170900Z 10009KT 070V140 CAVOK 28/20 Q1009 NOSIG

Laikas: 16:16 (09:16 UTC)

Prognozė

Ataskaita buvo paskelbta 4 valandos ir 16 minutes, ne 05:00 UTC
Prognozė galioja nuo 17 metu 06 UTC su 18 metu 06 UTC
Vėjas 10 kt iš Rytų
Matomumas 10 km arba daugiau
Išsisklaidę debesys ne aukštis 1500 ft

TAF: VVPQ 170500Z 1706/1806 09010KT 9999 SCT015

Orai ataskaitas ir orų prognozės (METAR, TAF).

turimą stotys yra geltonos ir raudonos taškus žemėlapyje.

Perkelti pele per norėdami pamatyti stoties vardą.

Tada spustelėkite, norėdami matyti oro stebėjimo ir prognozės.

Norėdami pakeisti žemėlapį: spustelėkite ant žalios mygtukų su juodo kryžiaus žemyn,; žalią mygtuką su brūkšneliu, jei norite nutolinti; arba žalių rodyklių gretimoms žemėlapius.


METAR-TAF: